sensor_id;sensor_type;location;lat;lon;timestamp;pressure;altitude;pressure_sealevel;temperature;humidity
11041;BME280;5573;49.592;8.662;2023-10-08T00:00:33;100689.50;;;16.90;63.26
11041;BME280;5573;49.592;8.662;2023-10-08T00:03:14;100695.22;;;16.82;64.00
11041;BME280;5573;49.592;8.662;2023-10-08T00:05:42;100678.81;;;16.72;64.05
11041;BME280;5573;49.592;8.662;2023-10-08T00:08:12;100689.38;;;16.85;63.94
11041;BME280;5573;49.592;8.662;2023-10-08T00:10:44;100686.69;;;16.85;63.53
11041;BME280;5573;49.592;8.662;2023-10-08T00:13:13;100696.63;;;16.84;63.66
11041;BME280;5573;49.592;8.662;2023-10-08T00:15:43;100693.59;;;16.81;63.74
11041;BME280;5573;49.592;8.662;2023-10-08T00:18:21;100685.38;;;16.76;63.81
11041;BME280;5573;49.592;8.662;2023-10-08T00:20:50;100683.28;;;16.78;64.33
11041;BME280;5573;49.592;8.662;2023-10-08T00:23:24;100683.19;;;16.84;63.90
11041;BME280;5573;49.592;8.662;2023-10-08T00:25:53;100686.44;;;16.75;64.31
11041;BME280;5573;49.592;8.662;2023-10-08T00:28:21;100699.44;;;16.78;64.16
11041;BME280;5573;49.592;8.662;2023-10-08T00:30:49;100694.94;;;16.72;64.74
11041;BME280;5573;49.592;8.662;2023-10-08T00:33:21;100693.69;;;16.74;64.60
11041;BME280;5573;49.592;8.662;2023-10-08T00:35:51;100682.44;;;16.66;64.46
11041;BME280;5573;49.592;8.662;2023-10-08T00:38:18;100675.84;;;16.62;65.03
11041;BME280;5573;49.592;8.662;2023-10-08T00:40:47;100680.94;;;16.52;65.22
11041;BME280;5573;49.592;8.662;2023-10-08T00:43:31;100679.72;;;16.66;64.98
11041;BME280;5573;49.592;8.662;2023-10-08T00:45:59;100678.09;;;16.65;64.76
11041;BME280;5573;49.592;8.662;2023-10-08T00:48:29;100689.84;;;16.52;65.14
11041;BME280;5573;49.592;8.662;2023-10-08T00:51:02;100689.69;;;16.47;65.45
11041;BME280;5573;49.592;8.662;2023-10-08T00:53:44;100696.94;;;16.46;65.67
11041;BME280;5573;49.592;8.662;2023-10-08T00:56:12;100693.97;;;16.36;66.10
11041;BME280;5573;49.592;8.662;2023-10-08T00:58:45;100689.63;;;16.35;66.08
11041;BME280;5573;49.592;8.662;2023-10-08T01:01:16;100692.28;;;16.24;66.32
11041;BME280;5573;49.592;8.662;2023-10-08T01:03:48;100698.63;;;16.29;66.18
11041;BME280;5573;49.592;8.662;2023-10-08T01:06:17;100697.66;;;16.24;66.63
11041;BME280;5573;49.592;8.662;2023-10-08T01:08:46;100688.69;;;16.12;67.17
11041;BME280;5573;49.592;8.662;2023-10-08T01:11:20;100686.09;;;16.05;67.75
11041;BME280;5573;49.592;8.662;2023-10-08T01:13:57;100693.28;;;16.11;67.76
11041;BME280;5573;49.592;8.662;2023-10-08T01:16:27;100675.41;;;16.17;67.30
11041;BME280;5573;49.592;8.662;2023-10-08T01:19:01;100685.41;;;16.28;66.68
11041;BME280;5573;49.592;8.662;2023-10-08T01:21:29;100686.38;;;16.33;66.27
11041;BME280;5573;49.592;8.662;2023-10-08T01:24:03;100686.38;;;16.33;66.43
11041;BME280;5573;49.592;8.662;2023-10-08T01:26:34;100651.47;;;16.15;66.67
11041;BME280;5573;49.592;8.662;2023-10-08T01:29:08;100668.03;;;16.42;66.22
11041;BME280;5573;49.592;8.662;2023-10-08T01:31:39;100673.50;;;16.35;66.45
11041;BME280;5573;49.592;8.662;2023-10-08T01:34:07;100675.25;;;16.30;66.67
11041;BME280;5573;49.592;8.662;2023-10-08T01:36:35;100672.94;;;16.33;67.00
11041;BME280;5573;49.592;8.662;2023-10-08T01:39:05;100679.34;;;16.32;67.10
11041;BME280;5573;49.592;8.662;2023-10-08T01:41:33;100685.75;;;16.31;66.88
11041;BME280;5573;49.592;8.662;2023-10-08T01:44:07;100678.31;;;16.33;66.91
11041;BME280;5573;49.592;8.662;2023-10-08T01:46:35;100672.03;;;16.21;67.20
11041;BME280;5573;49.592;8.662;2023-10-08T01:49:04;100664.75;;;16.10;67.51
11041;BME280;5573;49.592;8.662;2023-10-08T01:51:40;100670.28;;;16.15;67.22
11041;BME280;5573;49.592;8.662;2023-10-08T01:54:15;100668.38;;;16.16;67.12
11041;BME280;5573;49.592;8.662;2023-10-08T01:56:45;100668.16;;;16.17;67.11
11041;BME280;5573;49.592;8.662;2023-10-08T01:59:14;100666.03;;;16.08;67.55
11041;BME280;5573;49.592;8.662;2023-10-08T02:01:43;100658.63;;;16.03;67.95
11041;BME280;5573;49.592;8.662;2023-10-08T02:04:13;100660.03;;;16.06;67.25
11041;BME280;5573;49.592;8.662;2023-10-08T02:06:43;100652.88;;;15.99;67.91
11041;BME280;5573;49.592;8.662;2023-10-08T02:09:12;100659.38;;;15.92;68.42
11041;BME280;5573;49.592;8.662;2023-10-08T02:11:44;100660.78;;;15.94;68.05
11041;BME280;5573;49.592;8.662;2023-10-08T02:14:12;100655.06;;;15.91;68.07
11041;BME280;5573;49.592;8.662;2023-10-08T02:16:42;100657.16;;;15.89;68.18
11041;BME280;5573;49.592;8.662;2023-10-08T02:19:10;100650.97;;;15.88;68.49
11041;BME280;5573;49.592;8.662;2023-10-08T02:21:40;100663.72;;;15.93;68.11
11041;BME280;5573;49.592;8.662;2023-10-08T02:24:13;100662.94;;;15.86;68.21
11041;BME280;5573;49.592;8.662;2023-10-08T02:26:40;100671.34;;;15.78;68.88
11041;BME280;5573;49.592;8.662;2023-10-08T02:29:10;100666.00;;;15.71;69.30
11041;BME280;5573;49.592;8.662;2023-10-08T02:31:39;100593.75;;;15.27;68.88
11041;BME280;5573;49.592;8.662;2023-10-08T02:34:07;100675.63;;;15.61;69.52
11041;BME280;5573;49.592;8.662;2023-10-08T02:36:35;100677.28;;;15.62;69.40
11041;BME280;5573;49.592;8.662;2023-10-08T02:39:09;100682.66;;;15.62;69.49
11041;BME280;5573;49.592;8.662;2023-10-08T02:41:49;100679.34;;;15.60;69.53
11041;BME280;5573;49.592;8.662;2023-10-08T02:44:18;100682.34;;;15.51;69.81
11041;BME280;5573;49.592;8.662;2023-10-08T02:46:48;100655.13;;;15.41;69.63
11041;BME280;5573;49.592;8.662;2023-10-08T02:49:17;100633.13;;;15.15;71.00
11041;BME280;5573;49.592;8.662;2023-10-08T02:51:49;100671.97;;;15.30;72.53
11041;BME280;5573;49.592;8.662;2023-10-08T02:54:18;100667.00;;;15.09;73.50
11041;BME280;5573;49.592;8.662;2023-10-08T02:56:49;100668.22;;;15.13;72.11
11041;BME280;5573;49.592;8.662;2023-10-08T02:59:20;100666.75;;;15.17;71.82
11041;BME280;5573;49.592;8.662;2023-10-08T03:01:49;100661.91;;;15.01;73.05
11041;BME280;5573;49.592;8.662;2023-10-08T03:04:20;100656.81;;;14.93;73.64
11041;BME280;5573;49.592;8.662;2023-10-08T03:06:49;100661.91;;;15.01;74.00
11041;BME280;5573;49.592;8.662;2023-10-08T03:09:17;100633.50;;;14.93;72.59
11041;BME280;5573;49.592;8.662;2023-10-08T03:11:48;100647.19;;;15.10;72.41
11041;BME280;5573;49.592;8.662;2023-10-08T03:14:17;100642.22;;;15.14;72.73
11041;BME280;5573;49.592;8.662;2023-10-08T03:16:52;100646.56;;;15.08;72.52
11041;BME280;5573;49.592;8.662;2023-10-08T03:19:22;100629.88;;;15.06;72.46
11041;BME280;5573;49.592;8.662;2023-10-08T03:21:51;100641.22;;;15.08;72.58
11041;BME280;5573;49.592;8.662;2023-10-08T03:24:23;100639.28;;;15.15;72.74
11041;BME280;5573;49.592;8.662;2023-10-08T03:27:06;100644.22;;;15.18;72.23
11041;BME280;5573;49.592;8.662;2023-10-08T03:29:36;100634.28;;;15.19;72.38
11041;BME280;5573;49.592;8.662;2023-10-08T03:32:14;100640.28;;;15.21;72.81
11041;BME280;5573;49.592;8.662;2023-10-08T03:34:47;100653.63;;;15.27;73.02
11041;BME280;5573;49.592;8.662;2023-10-08T03:37:18;100654.34;;;15.16;72.85
11041;BME280;5573;49.592;8.662;2023-10-08T03:39:55;100648.66;;;15.06;72.51
11041;BME280;5573;49.592;8.662;2023-10-08T03:42:34;100661.47;;;15.04;72.47
11041;BME280;5573;49.592;8.662;2023-10-08T03:45:07;100666.63;;;15.05;72.56
11041;BME280;5573;49.592;8.662;2023-10-08T03:47:40;100678.28;;;14.93;72.75
11041;BME280;5573;49.592;8.662;2023-10-08T03:50:13;100677.94;;;14.83;72.94
11041;BME280;5573;49.592;8.662;2023-10-08T03:52:44;100677.28;;;14.63;74.17
11041;BME280;5573;49.592;8.662;2023-10-08T03:55:14;100681.88;;;14.49;75.30
11041;BME280;5573;49.592;8.662;2023-10-08T03:57:48;100678.75;;;14.59;74.62
11041;BME280;5573;49.592;8.662;2023-10-08T04:00:24;100685.19;;;14.44;76.25
11041;BME280;5573;49.592;8.662;2023-10-08T04:02:59;100681.03;;;14.48;74.48
11041;BME280;5573;49.592;8.662;2023-10-08T04:05:36;100687.88;;;14.44;75.68
11041;BME280;5573;49.592;8.662;2023-10-08T04:08:11;100697.25;;;14.16;78.24
11041;BME280;5573;49.592;8.662;2023-10-08T04:10:51;100704.16;;;13.92;79.58
11041;BME280;5573;49.592;8.662;2023-10-08T04:13:49;100699.06;;;13.64;81.63
11041;BME280;5573;49.592;8.662;2023-10-08T04:16:18;100703.63;;;13.50;81.95
11041;BME280;5573;49.592;8.662;2023-10-08T04:18:48;100696.59;;;13.63;80.20
11041;BME280;5573;49.592;8.662;2023-10-08T04:21:22;100692.94;;;13.50;82.55
11041;BME280;5573;49.592;8.662;2023-10-08T04:23:54;100692.53;;;13.27;83.68
11041;BME280;5573;49.592;8.662;2023-10-08T04:26:24;100684.28;;;13.22;84.04
11041;BME280;5573;49.592;8.662;2023-10-08T04:28:53;100694.41;;;13.14;84.71
11041;BME280;5573;49.592;8.662;2023-10-08T04:31:24;100691.69;;;13.00;85.90
11041;BME280;5573;49.592;8.662;2023-10-08T04:33:56;100696.19;;;12.87;86.31
11041;BME280;5573;49.592;8.662;2023-10-08T04:36:27;100692.28;;;12.89;86.41
11041;BME280;5573;49.592;8.662;2023-10-08T04:38:55;100695.78;;;12.83;86.49
11041;BME280;5573;49.592;8.662;2023-10-08T04:41:29;100690.44;;;12.90;86.50
11041;BME280;5573;49.592;8.662;2023-10-08T04:43:57;100691.47;;;12.89;86.52
11041;BME280;5573;49.592;8.662;2023-10-08T04:46:29;100693.53;;;12.87;86.97
11041;BME280;5573;49.592;8.662;2023-10-08T04:49:16;100662.25;;;12.68;87.20
11041;BME280;5573;49.592;8.662;2023-10-08T04:51:55;100686.53;;;12.73;87.35
11041;BME280;5573;49.592;8.662;2023-10-08T04:54:25;100675.00;;;12.72;87.75
11041;BME280;5573;49.592;8.662;2023-10-08T04:56:58;100666.97;;;12.72;88.10
11041;BME280;5573;49.592;8.662;2023-10-08T04:59:27;100670.06;;;12.76;87.86
11041;BME280;5573;49.592;8.662;2023-10-08T05:02:01;100671.91;;;12.82;87.11
11041;BME280;5573;49.592;8.662;2023-10-08T05:04:50;100659.97;;;12.64;88.68
11041;BME280;5573;49.592;8.662;2023-10-08T05:07:34;100583.81;;;12.21;88.89
11041;BME280;5573;49.592;8.662;2023-10-08T05:10:27;100656.28;;;12.72;88.62
11041;BME280;5573;49.592;8.662;2023-10-08T05:13:11;100648.44;;;12.77;88.25
11041;BME280;5573;49.592;8.662;2023-10-08T05:15:57;100650.09;;;12.85;87.99
11041;BME280;5573;49.592;8.662;2023-10-08T05:18:46;100662.88;;;12.96;87.79
11041;BME280;5573;49.592;8.662;2023-10-08T05:21:35;100661.66;;;13.05;87.87
11041;BME280;5573;49.592;8.662;2023-10-08T05:24:18;100676.03;;;13.04;87.65
11041;BME280;5573;49.592;8.662;2023-10-08T05:26:54;100678.94;;;13.09;87.93
11041;BME280;5573;49.592;8.662;2023-10-08T05:29:47;100673.59;;;13.16;86.99
11041;BME280;5573;49.592;8.662;2023-10-08T05:32:40;100677.31;;;13.21;86.96
11041;BME280;5573;49.592;8.662;2023-10-08T05:35:39;100672.38;;;13.31;86.56
11041;BME280;5573;49.592;8.662;2023-10-08T05:38:19;100677.84;;;13.63;83.43
11041;BME280;5573;49.592;8.662;2023-10-08T05:40:57;100674.31;;;13.82;82.82
11041;BME280;5573;49.592;8.662;2023-10-08T05:43:33;100683.69;;;14.11;79.82
11041;BME280;5573;49.592;8.662;2023-10-08T05:46:16;100684.09;;;14.14;81.06
11041;BME280;5573;49.592;8.662;2023-10-08T05:49:06;100687.72;;;14.26;79.14
11041;BME280;5573;49.592;8.662;2023-10-08T05:52:05;100694.59;;;14.16;81.26
11041;BME280;5573;49.592;8.662;2023-10-08T05:54:53;100694.63;;;14.09;82.62
11041;BME280;5573;49.592;8.662;2023-10-08T05:57:38;100701.03;;;14.01;82.23
11041;BME280;5573;49.592;8.662;2023-10-08T06:00:07;100692.53;;;14.11;80.65
11041;BME280;5573;49.592;8.662;2023-10-08T06:02:56;100695.91;;;13.93;83.38
11041;BME280;5573;49.592;8.662;2023-10-08T06:05:38;100686.63;;;13.96;83.72
11041;BME280;5573;49.592;8.662;2023-10-08T06:08:12;100692.63;;;13.85;84.43
11041;BME280;5573;49.592;8.662;2023-10-08T06:10:43;100685.56;;;14.10;80.82
11041;BME280;5573;49.592;8.662;2023-10-08T06:13:21;100686.56;;;14.09;82.07
11041;BME280;5573;49.592;8.662;2023-10-08T06:15:57;100686.44;;;14.42;78.11
11041;BME280;5573;49.592;8.662;2023-10-08T06:18:33;100682.78;;;14.36;81.07
11041;BME280;5573;49.592;8.662;2023-10-08T06:21:02;100697.38;;;14.40;80.35
11041;BME280;5573;49.592;8.662;2023-10-08T06:23:36;100689.38;;;14.27;81.66
11041;BME280;5573;49.592;8.662;2023-10-08T06:26:06;100698.81;;;14.43;78.20
11041;BME280;5573;49.592;8.662;2023-10-08T06:28:42;100683.31;;;14.51;77.33
11041;BME280;5573;49.592;8.662;2023-10-08T06:31:10;100691.88;;;14.67;76.15
11041;BME280;5573;49.592;8.662;2023-10-08T06:33:44;100688.22;;;14.86;74.95
11041;BME280;5573;49.592;8.662;2023-10-08T06:36:12;100689.00;;;14.93;75.12
11041;BME280;5573;49.592;8.662;2023-10-08T06:38:43;100695.97;;;15.00;74.03
11041;BME280;5573;49.592;8.662;2023-10-08T06:41:12;100698.66;;;15.00;73.89
11041;BME280;5573;49.592;8.662;2023-10-08T06:44:04;100700.03;;;15.10;74.00
11041;BME280;5573;49.592;8.662;2023-10-08T06:46:32;100713.56;;;15.21;72.88
11041;BME280;5573;49.592;8.662;2023-10-08T06:49:02;100706.38;;;15.15;73.93
11041;BME280;5573;49.592;8.662;2023-10-08T06:51:32;100711.91;;;15.20;72.74
11041;BME280;5573;49.592;8.662;2023-10-08T06:54:00;100730.44;;;15.28;72.48
11041;BME280;5573;49.592;8.662;2023-10-08T06:56:32;100730.88;;;15.25;72.49
11041;BME280;5573;49.592;8.662;2023-10-08T06:58:59;100732.19;;;15.16;73.35
11041;BME280;5573;49.592;8.662;2023-10-08T07:01:28;100742.88;;;15.23;72.75
11041;BME280;5573;49.592;8.662;2023-10-08T07:04:06;100747.84;;;15.19;73.06
11041;BME280;5573;49.592;8.662;2023-10-08T07:06:38;100734.84;;;14.91;73.54
11041;BME280;5573;49.592;8.662;2023-10-08T07:09:07;100761.56;;;15.04;74.13
11041;BME280;5573;49.592;8.662;2023-10-08T07:11:51;100793.81;;;14.98;74.12
11041;BME280;5573;49.592;8.662;2023-10-08T07:14:22;100811.34;;;15.07;73.62
11041;BME280;5573;49.592;8.662;2023-10-08T07:16:54;100808.16;;;15.17;74.11
11041;BME280;5573;49.592;8.662;2023-10-08T07:19:26;100797.00;;;15.20;78.88
11041;BME280;5573;49.592;8.662;2023-10-08T07:21:59;100785.72;;;15.36;78.95
11041;BME280;5573;49.592;8.662;2023-10-08T07:24:34;100772.56;;;15.28;79.48
11041;BME280;5573;49.592;8.662;2023-10-08T07:27:04;100781.34;;;15.41;76.04
11041;BME280;5573;49.592;8.662;2023-10-08T07:29:36;100786.75;;;15.66;73.18
11041;BME280;5573;49.592;8.662;2023-10-08T07:32:04;100791.22;;;15.72;71.54
11041;BME280;5573;49.592;8.662;2023-10-08T07:34:38;100788.84;;;15.82;71.27
11041;BME280;5573;49.592;8.662;2023-10-08T07:37:06;100800.28;;;15.78;71.54
11041;BME280;5573;49.592;8.662;2023-10-08T07:39:38;100793.00;;;15.85;70.88
11041;BME280;5573;49.592;8.662;2023-10-08T07:42:15;100788.38;;;15.92;69.30
11041;BME280;5573;49.592;8.662;2023-10-08T07:44:43;100792.25;;;15.96;69.72
11041;BME280;5573;49.592;8.662;2023-10-08T07:47:11;100783.66;;;15.87;71.92
11041;BME280;5573;49.592;8.662;2023-10-08T07:49:40;100785.97;;;15.84;76.03
11041;BME280;5573;49.592;8.662;2023-10-08T07:52:12;100773.47;;;15.71;74.13
11041;BME280;5573;49.592;8.662;2023-10-08T07:54:43;100789.41;;;15.91;74.44
11041;BME280;5573;49.592;8.662;2023-10-08T07:57:11;100797.13;;;16.06;75.09
11041;BME280;5573;49.592;8.662;2023-10-08T07:59:42;100772.53;;;16.02;72.98
11041;BME280;5573;49.592;8.662;2023-10-08T08:02:14;100814.06;;;16.42;71.49
11041;BME280;5573;49.592;8.662;2023-10-08T08:04:45;100825.81;;;16.48;73.04
11041;BME280;5573;49.592;8.662;2023-10-08T08:07:17;100824.44;;;16.64;72.90
11041;BME280;5573;49.592;8.662;2023-10-08T08:09:46;100819.03;;;16.82;69.78
11041;BME280;5573;49.592;8.662;2023-10-08T08:12:18;100816.44;;;16.87;69.54
11041;BME280;5573;49.592;8.662;2023-10-08T08:14:48;100808.78;;;16.72;72.03
11041;BME280;5573;49.592;8.662;2023-10-08T08:17:17;100825.19;;;16.82;71.83
11041;BME280;5573;49.592;8.662;2023-10-08T08:19:46;100814.44;;;16.82;70.81
11041;BME280;5573;49.592;8.662;2023-10-08T08:22:14;100816.59;;;17.22;67.77
11041;BME280;5573;49.592;8.662;2023-10-08T08:24:48;100817.53;;;17.27;67.80
11041;BME280;5573;49.592;8.662;2023-10-08T08:27:24;100823.13;;;17.14;67.73
11041;BME280;5573;49.592;8.662;2023-10-08T08:29:53;100820.09;;;17.22;67.69
11041;BME280;5573;49.592;8.662;2023-10-08T08:32:23;100819.25;;;17.10;69.34
11041;BME280;5573;49.592;8.662;2023-10-08T08:34:51;100819.69;;;17.07;69.15
11041;BME280;5573;49.592;8.662;2023-10-08T08:37:19;100815.38;;;17.06;68.73
11041;BME280;5573;49.592;8.662;2023-10-08T08:39:49;100824.81;;;17.27;67.81
11041;BME280;5573;49.592;8.662;2023-10-08T08:42:21;100817.00;;;17.07;68.34
11041;BME280;5573;49.592;8.662;2023-10-08T08:44:50;100826.84;;;17.13;68.14
11041;BME280;5573;49.592;8.662;2023-10-08T08:47:21;100812.81;;;17.11;68.52
11041;BME280;5573;49.592;8.662;2023-10-08T08:49:52;100844.09;;;17.24;68.93
11041;BME280;5573;49.592;8.662;2023-10-08T08:52:22;100828.91;;;17.29;68.66
11041;BME280;5573;49.592;8.662;2023-10-08T08:54:50;100820.25;;;17.39;68.12
11041;BME280;5573;49.592;8.662;2023-10-08T08:57:19;100824.09;;;17.31;68.66
11041;BME280;5573;49.592;8.662;2023-10-08T08:59:52;100829.00;;;17.34;68.22
11041;BME280;5573;49.592;8.662;2023-10-08T09:02:22;100821.63;;;17.60;67.46
11041;BME280;5573;49.592;8.662;2023-10-08T09:04:50;100822.19;;;17.62;67.57
11041;BME280;5573;49.592;8.662;2023-10-08T09:07:21;100812.47;;;17.61;67.62
11041;BME280;5573;49.592;8.662;2023-10-08T09:09:50;100810.88;;;17.30;68.22
11041;BME280;5573;49.592;8.662;2023-10-08T09:12:19;100822.13;;;17.27;68.38
11041;BME280;5573;49.592;8.662;2023-10-08T09:14:48;100826.56;;;17.33;68.77
11041;BME280;5573;49.592;8.662;2023-10-08T09:17:16;100831.97;;;17.33;67.70
11041;BME280;5573;49.592;8.662;2023-10-08T09:19:45;100832.78;;;17.33;67.70
11041;BME280;5573;49.592;8.662;2023-10-08T09:22:13;100823.63;;;17.34;69.00
11041;BME280;5573;49.592;8.662;2023-10-08T09:24:48;100838.88;;;17.40;68.43
11041;BME280;5573;49.592;8.662;2023-10-08T09:27:19;100800.56;;;17.38;68.83
11041;BME280;5573;49.592;8.662;2023-10-08T09:29:48;100828.63;;;17.61;68.05
11041;BME280;5573;49.592;8.662;2023-10-08T09:32:16;100824.09;;;17.73;67.75
11041;BME280;5573;49.592;8.662;2023-10-08T09:34:52;100808.41;;;17.81;66.79
11041;BME280;5573;49.592;8.662;2023-10-08T09:37:21;100826.09;;;17.89;65.88
11041;BME280;5573;49.592;8.662;2023-10-08T09:39:49;100852.22;;;17.77;67.97
11041;BME280;5573;49.592;8.662;2023-10-08T09:42:19;100811.94;;;17.82;68.64
11041;BME280;5573;49.592;8.662;2023-10-08T09:44:49;100843.69;;;18.03;66.24
11041;BME280;5573;49.592;8.662;2023-10-08T09:47:20;100831.72;;;17.99;67.40
11041;BME280;5573;49.592;8.662;2023-10-08T09:49:56;100828.06;;;18.28;65.87
11041;BME280;5573;49.592;8.662;2023-10-08T09:52:31;100838.16;;;18.10;66.09
11041;BME280;5573;49.592;8.662;2023-10-08T09:55:07;100838.78;;;18.23;67.39
11041;BME280;5573;49.592;8.662;2023-10-08T09:57:37;100842.25;;;18.35;65.61
11041;BME280;5573;49.592;8.662;2023-10-08T10:00:07;100824.19;;;18.36;65.31
11041;BME280;5573;49.592;8.662;2023-10-08T10:02:41;100853.88;;;18.36;64.36
11041;BME280;5573;49.592;8.662;2023-10-08T10:05:12;100843.56;;;18.33;66.33
11041;BME280;5573;49.592;8.662;2023-10-08T10:07:40;100851.78;;;18.38;65.99
11041;BME280;5573;49.592;8.662;2023-10-08T10:10:25;100844.09;;;18.47;64.93
11041;BME280;5573;49.592;8.662;2023-10-08T10:12:57;100850.47;;;18.40;65.34
11041;BME280;5573;49.592;8.662;2023-10-08T10:15:26;100848.22;;;18.49;65.37
11041;BME280;5573;49.592;8.662;2023-10-08T10:17:59;100842.56;;;18.51;64.89
11041;BME280;5573;49.592;8.662;2023-10-08T10:20:40;100837.53;;;18.66;63.33
11041;BME280;5573;49.592;8.662;2023-10-08T10:23:34;100831.19;;;18.72;64.09
11041;BME280;5573;49.592;8.662;2023-10-08T10:26:04;100829.38;;;18.89;62.79
11041;BME280;5573;49.592;8.662;2023-10-08T10:28:36;100824.78;;;18.89;63.30
11041;BME280;5573;49.592;8.662;2023-10-08T10:31:04;100820.69;;;19.15;62.77
11041;BME280;5573;49.592;8.662;2023-10-08T10:33:34;100817.53;;;18.90;63.48
11041;BME280;5573;49.592;8.662;2023-10-08T10:36:05;100820.97;;;19.02;62.67
11041;BME280;5573;49.592;8.662;2023-10-08T10:38:35;100821.31;;;19.06;61.64
11041;BME280;5573;49.592;8.662;2023-10-08T10:41:03;100820.41;;;19.00;63.18
11041;BME280;5573;49.592;8.662;2023-10-08T10:43:35;100820.72;;;18.87;63.83
11041;BME280;5573;49.592;8.662;2023-10-08T10:46:07;100823.03;;;18.83;63.03
11041;BME280;5573;49.592;8.662;2023-10-08T10:48:56;100817.50;;;19.18;61.68
11041;BME280;5573;49.592;8.662;2023-10-08T10:51:49;100826.38;;;19.02;62.85
11041;BME280;5573;49.592;8.662;2023-10-08T10:54:24;100815.66;;;19.07;63.51
11041;BME280;5573;49.592;8.662;2023-10-08T10:56:52;100810.09;;;18.97;62.53
11041;BME280;5573;49.592;8.662;2023-10-08T10:59:30;100829.06;;;19.30;61.67
11041;BME280;5573;49.592;8.662;2023-10-08T11:02:06;100831.75;;;19.42;62.61
11041;BME280;5573;49.592;8.662;2023-10-08T11:04:35;100824.09;;;19.39;62.84
11041;BME280;5573;49.592;8.662;2023-10-08T11:07:18;100811.09;;;19.53;61.46
11041;BME280;5573;49.592;8.662;2023-10-08T11:09:48;100826.91;;;19.77;60.99
11041;BME280;5573;49.592;8.662;2023-10-08T11:12:16;100822.31;;;19.78;61.21
11041;BME280;5573;49.592;8.662;2023-10-08T11:14:49;100830.78;;;19.65;61.47
11041;BME280;5573;49.592;8.662;2023-10-08T11:17:23;100830.53;;;19.50;60.71
11041;BME280;5573;49.592;8.662;2023-10-08T11:19:51;100837.97;;;19.59;61.67
11041;BME280;5573;49.592;8.662;2023-10-08T11:22:21;100824.88;;;19.68;61.06
11041;BME280;5573;49.592;8.662;2023-10-08T11:24:50;100831.50;;;19.60;61.53
11041;BME280;5573;49.592;8.662;2023-10-08T11:27:21;100835.09;;;19.49;62.53
11041;BME280;5573;49.592;8.662;2023-10-08T11:29:56;100830.53;;;19.83;60.45
11041;BME280;5573;49.592;8.662;2023-10-08T11:32:25;100825.94;;;20.22;60.46
11041;BME280;5573;49.592;8.662;2023-10-08T11:34:57;100822.28;;;20.28;58.20
11041;BME280;5573;49.592;8.662;2023-10-08T11:37:28;100837.03;;;20.20;60.49
11041;BME280;5573;49.592;8.662;2023-10-08T11:39:56;100843.97;;;20.50;58.08
11041;BME280;5573;49.592;8.662;2023-10-08T11:42:26;100834.28;;;20.54;58.37
11041;BME280;5573;49.592;8.662;2023-10-08T11:45:11;100848.94;;;20.79;57.35
11041;BME280;5573;49.592;8.662;2023-10-08T11:47:52;100845.97;;;21.03;56.94
11041;BME280;5573;49.592;8.662;2023-10-08T11:50:24;100846.16;;;20.74;58.13
11041;BME280;5573;49.592;8.662;2023-10-08T11:53:00;100847.50;;;20.72;58.70
11041;BME280;5573;49.592;8.662;2023-10-08T11:55:30;100850.81;;;20.79;59.04
11041;BME280;5573;49.592;8.662;2023-10-08T11:58:03;100845.97;;;20.81;57.89
11041;BME280;5573;49.592;8.662;2023-10-08T12:00:37;100837.78;;;20.76;58.17
11041;BME280;5573;49.592;8.662;2023-10-08T12:03:12;100845.78;;;20.88;58.38
11041;BME280;5573;49.592;8.662;2023-10-08T12:05:45;100848.91;;;21.01;57.23
11041;BME280;5573;49.592;8.662;2023-10-08T12:08:17;100840.09;;;20.89;56.72
11041;BME280;5573;49.592;8.662;2023-10-08T12:10:48;100831.59;;;21.02;58.96
11041;BME280;5573;49.592;8.662;2023-10-08T12:13:22;100828.81;;;20.97;56.92
11041;BME280;5573;49.592;8.662;2023-10-08T12:15:52;100805.91;;;20.83;57.94
11041;BME280;5573;49.592;8.662;2023-10-08T12:18:32;100822.16;;;20.83;58.05
11041;BME280;5573;49.592;8.662;2023-10-08T12:21:06;100814.34;;;20.87;58.21
11041;BME280;5573;49.592;8.662;2023-10-08T12:23:39;100820.75;;;21.02;58.37
11041;BME280;5573;49.592;8.662;2023-10-08T12:26:07;100815.94;;;21.09;56.74
11041;BME280;5573;49.592;8.662;2023-10-08T12:28:35;100806.88;;;20.72;58.38
11041;BME280;5573;49.592;8.662;2023-10-08T12:31:04;100810.91;;;20.69;58.74
11041;BME280;5573;49.592;8.662;2023-10-08T12:33:32;100806.00;;;20.45;59.12
11041;BME280;5573;49.592;8.662;2023-10-08T12:36:01;100804.06;;;20.62;58.89
11041;BME280;5573;49.592;8.662;2023-10-08T12:38:40;100806.28;;;20.92;57.56
11041;BME280;5573;49.592;8.662;2023-10-08T12:41:09;100802.19;;;20.89;56.63
11041;BME280;5573;49.592;8.662;2023-10-08T12:43:41;100798.50;;;21.00;55.86
11041;BME280;5573;49.592;8.662;2023-10-08T12:46:13;100787.47;;;21.07;56.25
11041;BME280;5573;49.592;8.662;2023-10-08T12:48:45;100785.56;;;21.07;56.38
11041;BME280;5573;49.592;8.662;2023-10-08T12:51:20;100792.56;;;21.25;57.25
11041;BME280;5573;49.592;8.662;2023-10-08T12:53:52;100800.25;;;21.38;56.55
11041;BME280;5573;49.592;8.662;2023-10-08T12:56:26;100798.53;;;21.59;56.02
11041;BME280;5573;49.592;8.662;2023-10-08T12:59:02;100805.22;;;21.46;56.51
11041;BME280;5573;49.592;8.662;2023-10-08T13:01:33;100798.50;;;21.54;56.64
11041;BME280;5573;49.592;8.662;2023-10-08T13:04:02;100794.28;;;21.68;56.58
11041;BME280;5573;49.592;8.662;2023-10-08T13:06:34;100794.03;;;21.69;56.65
11041;BME280;5573;49.592;8.662;2023-10-08T13:09:05;100779.81;;;21.57;56.31
11041;BME280;5573;49.592;8.662;2023-10-08T13:11:39;100796.31;;;21.51;55.78
11041;BME280;5573;49.592;8.662;2023-10-08T13:14:09;100796.91;;;21.58;56.87
11041;BME280;5573;49.592;8.662;2023-10-08T13:16:39;100799.56;;;21.53;56.78
11041;BME280;5573;49.592;8.662;2023-10-08T13:19:07;100787.13;;;21.57;60.44
11041;BME280;5573;49.592;8.662;2023-10-08T13:21:35;100792.84;;;21.60;56.32
11041;BME280;5573;49.592;8.662;2023-10-08T13:24:06;100783.22;;;21.80;55.83
11041;BME280;5573;49.592;8.662;2023-10-08T13:26:36;100780.22;;;21.76;56.64
11041;BME280;5573;49.592;8.662;2023-10-08T13:29:05;100775.56;;;21.71;54.76